Time;durP1;ratioP1;P1;durP2;ratioP2;P2;SDS_P1;SDS_P2;PMS_P1;PMS_P2;Temp;Humidity;BMP_temperature;BMP_pressure;BME280_temperature;BME280_humidity;BME280_pressure;Samples;Min_cycle;Max_cycle;Signal;HPM_P1;HPM_P2
2024/03/03 00:01:12;;;;;;;3.70;2.40;;;12.00;99.90;;;;;;4997299;28;20511;-73
2024/03/03 00:03:39;;;;;;;4.80;2.50;;;12.00;99.90;;;;;;4994388;28;20453;-75
2024/03/03 00:06:06;;;;;;;3.33;2.40;;;11.80;99.90;;;;;;4992258;28;20485;-72
2024/03/03 00:08:33;;;;;;;6.50;3.20;;;11.70;99.90;;;;;;4994586;28;20586;-75
2024/03/03 00:10:59;;;;;;;3.60;2.90;;;11.60;99.90;;;;;;4988176;28;20978;-74
2024/03/03 00:13:28;;;;;;;4.13;2.17;;;11.60;99.90;;;;;;4988007;28;20468;-72
2024/03/03 00:15:55;;;;;;;3.87;2.17;;;11.70;99.90;;;;;;4988499;28;21722;-73
2024/03/03 00:18:23;;;;;;;4.17;2.77;;;11.80;99.90;;;;;;4995140;28;20547;-73
2024/03/03 00:20:50;;;;;;;3.23;2.93;;;11.80;99.90;;;;;;4992116;28;21009;-74
2024/03/03 00:23:17;;;;;;;3.50;2.17;;;11.80;99.90;;;;;;4992021;28;20472;-74
2024/03/03 00:25:43;;;;;;;3.10;2.60;;;11.80;99.90;;;;;;4990310;28;20468;-74
2024/03/03 00:28:10;;;;;;;3.40;2.37;;;11.80;99.90;;;;;;4989465;28;20455;-73
2024/03/03 00:30:37;;;;;;;3.10;2.13;;;11.80;99.90;;;;;;4989491;28;20497;-74
2024/03/03 00:33:04;;;;;;;6.33;2.20;;;11.70;99.90;;;;;;4988341;28;20458;-73
2024/03/03 00:35:32;;;;;;;3.43;2.20;;;11.60;99.90;;;;;;4991291;28;20485;-73
2024/03/03 00:37:59;;;;;;;3.10;2.80;;;11.60;99.90;;;;;;4990291;28;20928;-73
2024/03/03 00:40:26;;;;;;;3.50;2.63;;;11.60;99.90;;;;;;4989214;28;20620;-74
2024/03/03 00:42:52;;;;;;;3.73;2.70;;;11.60;99.90;;;;;;4990072;28;20470;-73
2024/03/03 00:45:19;;;;;;;7.53;3.30;;;11.60;99.90;;;;;;4997031;28;20947;-72
2024/03/03 00:47:46;;;;;;;4.90;2.23;;;11.60;99.90;;;;;;4993295;28;20453;-72
2024/03/03 00:50:13;;;;;;;2.97;1.83;;;11.60;99.90;;;;;;4998688;28;20535;-71
2024/03/03 00:52:41;;;;;;;3.73;2.60;;;11.70;99.90;;;;;;4993521;28;20525;-72
2024/03/03 00:55:09;;;;;;;3.47;2.47;;;11.70;99.90;;;;;;4994269;28;20550;-73
2024/03/03 00:57:36;;;;;;;5.47;2.20;;;11.70;99.90;;;;;;4994887;28;20458;-75
2024/03/03 01:00:03;;;;;;;3.60;2.20;;;11.70;99.90;;;;;;4994042;28;20694;-73
2024/03/03 01:02:30;;;;;;;2.27;1.60;;;11.70;99.90;;;;;;4999765;28;20470;-74
2024/03/03 01:04:57;;;;;;;3.40;2.10;;;11.70;99.90;;;;;;4998586;28;20479;-73
2024/03/03 01:07:23;;;;;;;5.60;3.50;;;11.70;99.90;;;;;;4999405;28;20469;-72
2024/03/03 01:09:51;;;;;;;4.70;2.77;;;11.80;99.90;;;;;;4992820;28;20833;-73
2024/03/03 01:12:20;;;;;;;3.47;2.40;;;11.70;99.90;;;;;;4993649;28;20826;-74
2024/03/03 01:14:46;;;;;;;2.60;2.17;;;11.60;99.90;;;;;;4991958;28;20457;-72
2024/03/03 01:17:13;;;;;;;3.77;2.47;;;11.60;99.90;;;;;;4988003;28;20934;-72
2024/03/03 01:19:40;;;;;;;3.07;2.40;;;11.50;99.90;;;;;;4985281;28;20497;-74
2024/03/03 01:22:07;;;;;;;5.20;2.60;;;11.40;99.90;;;;;;4990391;28;20458;-74
2024/03/03 01:24:34;;;;;;;5.07;2.70;;;11.40;99.90;;;;;;4991162;28;20455;-74
2024/03/03 01:27:02;;;;;;;3.37;2.50;;;11.30;99.90;;;;;;4987777;28;20462;-74
2024/03/03 01:29:29;;;;;;;5.10;2.80;;;11.30;99.90;;;;;;4991625;28;20485;-74
2024/03/03 01:31:55;;;;;;;4.60;3.23;;;11.30;99.90;;;;;;4990860;28;20465;-74
2024/03/03 01:34:23;;;;;;;4.53;2.63;;;11.30;99.90;;;;;;4989159;28;20473;-73
2024/03/03 01:36:49;;;;;;;3.10;2.60;;;11.30;99.90;;;;;;4989898;28;20763;-73
2024/03/03 01:39:16;;;;;;;4.00;2.30;;;11.20;99.90;;;;;;4992582;28;20480;-74
2024/03/03 01:41:45;;;;;;;2.87;1.97;;;11.20;99.90;;;;;;4991869;28;20476;-73
2024/03/03 01:44:13;;;;;;;4.27;3.20;;;11.20;99.90;;;;;;4997908;28;20873;-73
2024/03/03 01:46:40;;;;;;;4.93;2.40;;;11.20;99.90;;;;;;4994673;28;20456;-75
2024/03/03 01:49:08;;;;;;;6.77;4.00;;;11.10;99.90;;;;;;4992022;28;21524;-74
2024/03/03 01:51:35;;;;;;;4.63;2.87;;;11.10;99.90;;;;;;4990755;28;20472;-74
2024/03/03 01:54:04;;;;;;;5.03;2.53;;;11.00;99.90;;;;;;4981122;28;21025;-74
2024/03/03 01:56:33;;;;;;;5.60;2.20;;;11.00;99.90;;;;;;4989760;28;20461;-74
2024/03/03 01:59:03;;;;;;;7.67;3.20;;;11.00;99.90;;;;;;4993014;28;20484;-74
2024/03/03 02:01:32;;;;;;;4.47;3.00;;;11.00;99.90;;;;;;4980528;28;20584;-74
2024/03/03 02:03:59;;;;;;;7.73;3.10;;;11.00;99.90;;;;;;4992741;28;20465;-74
2024/03/03 02:06:31;;;;;;;3.47;1.63;;;11.00;99.90;;;;;;4991632;28;20845;-74
2024/03/03 02:08:59;;;;;;;3.00;2.10;;;10.90;99.90;;;;;;4983787;28;21009;-73
2024/03/03 02:11:26;;;;;;;4.47;2.30;;;10.90;99.90;;;;;;4982663;28;20461;-73
2024/03/03 02:13:53;;;;;;;7.30;3.20;;;10.80;99.90;;;;;;4990436;28;20819;-72
2024/03/03 02:16:20;;;;;;;2.97;2.43;;;10.80;99.90;;;;;;4986378;28;20937;-73
2024/03/03 02:18:48;;;;;;;4.20;2.13;;;10.90;99.90;;;;;;4977967;28;20477;-73
2024/03/03 02:21:16;;;;;;;2.80;1.60;;;10.80;99.90;;;;;;4983602;28;20465;-73
2024/03/03 02:23:44;;;;;;;3.50;2.67;;;10.80;99.90;;;;;;4988573;28;20464;-74
2024/03/03 02:26:11;;;;;;;3.80;2.70;;;10.80;99.90;;;;;;4981465;28;21644;-74
2024/03/03 02:28:39;;;;;;;4.67;2.20;;;10.70;99.90;;;;;;4986800;28;20985;-74
2024/03/03 02:31:06;;;;;;;6.00;2.33;;;10.70;99.90;;;;;;4984409;28;20540;-74
2024/03/03 02:33:34;;;;;;;2.77;2.50;;;10.80;99.90;;;;;;4987775;28;20551;-74
2024/03/03 02:36:00;;;;;;;3.57;2.30;;;11.00;99.90;;;;;;4986596;28;20842;-74
2024/03/03 02:38:27;;;;;;;4.90;3.43;;;11.00;99.90;;;;;;4979521;28;20462;-74
2024/03/03 02:40:55;;;;;;;2.87;2.13;;;11.00;99.90;;;;;;4986794;28;20457;-74
2024/03/03 02:43:22;;;;;;;2.20;2.00;;;11.00;99.90;;;;;;4984228;28;20475;-74
2024/03/03 02:45:49;;;;;;;3.20;2.43;;;11.00;99.90;;;;;;4987889;28;21185;-72
2024/03/03 02:48:15;;;;;;;6.17;3.47;;;10.90;99.90;;;;;;4990954;28;20473;-74
2024/03/03 02:50:42;;;;;;;3.30;1.83;;;10.90;99.90;;;;;;4990162;28;20496;-72
2024/03/03 02:53:09;;;;;;;3.93;2.20;;;11.00;99.90;;;;;;4990087;28;22659;-73
2024/03/03 02:55:36;;;;;;;3.50;2.17;;;11.00;99.90;;;;;;4995608;28;20453;-73
2024/03/03 02:58:04;;;;;;;4.20;2.30;;;10.90;99.90;;;;;;4997160;28;20465;-74
2024/03/03 03:00:31;;;;;;;3.00;2.70;;;11.00;99.90;;;;;;4994930;28;20945;-73
2024/03/03 03:02:58;;;;;;;4.27;1.87;;;11.00;99.90;;;;;;4995163;28;20535;-72
2024/03/03 03:05:25;;;;;;;3.93;2.33;;;11.10;99.90;;;;;;5001133;28;20469;-74
2024/03/03 03:07:52;;;;;;;3.23;2.40;;;11.20;99.90;;;;;;4999810;28;20686;-74
2024/03/03 03:10:20;;;;;;;3.47;2.27;;;11.20;99.90;;;;;;4992438;28;20492;-73
2024/03/03 03:12:47;;;;;;;4.17;2.90;;;11.00;99.90;;;;;;4998263;28;20884;-72
2024/03/03 03:15:15;;;;;;;4.10;2.40;;;11.00;99.90;;;;;;4997758;28;20470;-73
2024/03/03 03:17:43;;;;;;;3.33;2.23;;;10.90;99.90;;;;;;5002197;28;20465;-73
2024/03/03 03:20:11;;;;;;;5.00;2.73;;;10.90;99.90;;;;;;5002100;28;20485;-73
2024/03/03 03:22:37;;;;;;;6.67;2.67;;;10.80;99.90;;;;;;4999506;28;20477;-73
2024/03/03 03:25:05;;;;;;;2.43;1.90;;;10.80;99.90;;;;;;4998986;28;20818;-72
2024/03/03 03:27:32;;;;;;;5.33;3.73;;;10.90;99.90;;;;;;4997772;28;20461;-73
2024/03/03 03:29:59;;;;;;;7.03;2.80;;;10.90;99.90;;;;;;5000425;28;20865;-73
2024/03/03 03:32:27;;;;;;;6.70;3.40;;;10.90;99.90;;;;;;4996568;28;20432;-73
2024/03/03 03:34:53;;;;;;;6.17;3.83;;;10.90;99.90;;;;;;4998267;28;20465;-73
2024/03/03 03:37:20;;;;;;;8.20;3.50;;;11.00;99.90;;;;;;4997111;28;20465;-73
2024/03/03 03:39:47;;;;;;;4.70;2.90;;;10.90;99.90;;;;;;4995255;28;20509;-74
2024/03/03 03:42:13;;;;;;;6.17;2.80;;;11.00;99.90;;;;;;4992794;28;20453;-73
2024/03/03 03:44:40;;;;;;;4.90;3.13;;;10.80;99.90;;;;;;5000725;28;20473;-74
2024/03/03 03:47:07;;;;;;;5.40;3.73;;;10.80;99.90;;;;;;4998281;28;20476;-74
2024/03/03 03:49:35;;;;;;;5.10;3.60;;;10.70;99.90;;;;;;4998735;28;21476;-74
2024/03/03 03:52:03;;;;;;;4.67;2.90;;;10.80;99.90;;;;;;4987558;28;20978;-73
2024/03/03 03:54:30;;;;;;;2.73;2.50;;;10.80;99.90;;;;;;4993798;28;20797;-73
2024/03/03 03:56:57;;;;;;;5.20;2.97;;;10.80;99.90;;;;;;4997295;28;20461;-73
2024/03/03 03:59:24;;;;;;;3.90;2.53;;;10.70;99.90;;;;;;5001428;28;20572;-72
2024/03/03 04:01:51;;;;;;;5.80;3.37;;;10.70;99.90;;;;;;4995139;28;20462;-73
2024/03/03 04:04:18;;;;;;;5.13;2.70;;;10.60;99.90;;;;;;4997147;28;20488;-74
2024/03/03 04:06:46;;;;;;;6.03;3.50;;;10.50;99.90;;;;;;4991306;28;20462;-73
2024/03/03 04:09:13;;;;;;;4.80;3.00;;;10.40;99.90;;;;;;4994468;28;20495;-73
2024/03/03 04:11:40;;;;;;;4.00;3.60;;;10.20;99.90;;;;;;5003417;28;20465;-74
2024/03/03 04:14:07;;;;;;;8.33;5.27;;;10.10;99.90;;;;;;4998312;28;20461;-72
2024/03/03 04:16:34;;;;;;;6.07;3.00;;;10.00;99.90;;;;;;4991902;28;20467;-74
2024/03/03 04:19:00;;;;;;;3.00;2.70;;;10.00;99.90;;;;;;4998139;28;21027;-73
2024/03/03 04:21:27;;;;;;;6.00;4.00;;;10.00;99.90;;;;;;4995677;28;20826;-73
2024/03/03 04:23:55;;;;;;;6.30;3.30;;;10.00;99.90;;;;;;5001410;28;20465;-72
2024/03/03 04:26:22;;;;;;;6.73;5.73;;;10.00;99.90;;;;;;4999795;28;20470;-74
2024/03/03 04:28:49;;;;;;;6.50;4.00;;;9.90;99.90;;;;;;4995834;28;20476;-74
2024/03/03 04:31:15;;;;;;;5.33;3.30;;;9.90;99.90;;;;;;4996877;28;20632;-73
2024/03/03 04:33:42;;;;;;;5.97;3.67;;;9.90;99.90;;;;;;4994909;28;20472;-73
2024/03/03 04:36:11;;;;;;;8.70;4.00;;;9.80;99.90;;;;;;4997182;28;20456;-73
2024/03/03 04:38:39;;;;;;;11.27;4.33;;;9.90;99.90;;;;;;4989267;28;21004;-73
2024/03/03 04:41:14;;;;;;;12.43;5.07;;;9.90;99.90;;;;;;4991277;28;20454;-73
2024/03/03 04:43:41;;;;;;;6.10;3.90;;;9.90;99.90;;;;;;4995408;28;20438;-73
2024/03/03 04:46:08;;;;;;;4.00;3.37;;;9.80;99.90;;;;;;4995112;28;20462;-74
2024/03/03 04:48:35;;;;;;;7.37;4.30;;;9.70;99.90;;;;;;4990014;28;21011;-73
2024/03/03 04:51:02;;;;;;;8.57;4.97;;;9.70;99.90;;;;;;4988158;28;20945;-73
2024/03/03 04:53:29;;;;;;;7.20;4.90;;;9.80;99.90;;;;;;4993246;28;20469;-73
2024/03/03 04:55:56;;;;;;;13.10;5.57;;;9.80;99.90;;;;;;4989415;28;20489;-73
2024/03/03 04:58:24;;;;;;;6.43;4.03;;;9.80;99.90;;;;;;4992705;28;20470;-74
2024/03/03 05:00:50;;;;;;;10.27;4.77;;;9.70;99.90;;;;;;5001730;28;20462;-73
2024/03/03 05:03:18;;;;;;;8.33;4.80;;;9.70;99.90;;;;;;4997256;28;21241;-72
2024/03/03 05:05:45;;;;;;;7.57;4.13;;;9.60;99.90;;;;;;4999802;28;20643;-73
2024/03/03 05:08:12;;;;;;;5.43;4.63;;;9.60;99.90;;;;;;4996974;28;20573;-73
2024/03/03 05:10:39;;;;;;;6.53;5.10;;;9.60;99.90;;;;;;4992821;28;20510;-73
2024/03/03 05:13:06;;;;;;;9.10;4.40;;;9.70;99.90;;;;;;4997222;28;20465;-72
2024/03/03 05:15:34;;;;;;;8.70;4.93;;;9.70;99.90;;;;;;4995160;28;20469;-73
2024/03/03 05:18:01;;;;;;;5.10;3.57;;;9.70;99.90;;;;;;4998693;28;20582;-72
2024/03/03 05:20:28;;;;;;;6.67;4.40;;;9.70;99.90;;;;;;4997003;28;20616;-73
2024/03/03 05:22:55;;;;;;;8.10;4.27;;;9.80;99.90;;;;;;5000274;28;20610;-73
2024/03/03 05:25:21;;;;;;;6.47;4.30;;;9.90;99.90;;;;;;4994936;28;20461;-72
2024/03/03 05:27:48;;;;;;;5.93;4.00;;;9.80;99.90;;;;;;4990769;28;20473;-73
2024/03/03 05:30:15;;;;;;;6.07;3.83;;;9.80;99.90;;;;;;4993568;28;20498;-72
2024/03/03 05:32:43;;;;;;;9.77;5.10;;;9.90;99.90;;;;;;4996187;28;20936;-72
2024/03/03 05:35:10;;;;;;;7.20;4.27;;;9.90;99.90;;;;;;4986403;28;20837;-74
2024/03/03 05:37:36;;;;;;;5.63;4.40;;;9.90;99.90;;;;;;4995671;28;20456;-73
2024/03/03 05:40:04;;;;;;;8.17;4.50;;;9.80;99.90;;;;;;4995304;28;20488;-74
2024/03/03 05:42:31;;;;;;;9.57;4.20;;;9.80;99.90;;;;;;4993353;28;20458;-74
2024/03/03 05:44:57;;;;;;;6.63;3.63;;;9.90;99.90;;;;;;4995093;28;20832;-73
2024/03/03 05:47:24;;;;;;;9.57;5.30;;;9.70;99.90;;;;;;5013576;23;20473;-68
2024/03/03 05:49:52;;;;;;;15.63;4.80;;;9.70;99.90;;;;;;4996701;28;20485;-70
2024/03/03 05:52:19;;;;;;;6.17;4.00;;;9.60;99.90;;;;;;4992059;28;20909;-70
2024/03/03 05:54:46;;;;;;;8.77;5.73;;;9.60;99.90;;;;;;4998432;28;20470;-70
2024/03/03 05:57:13;;;;;;;11.13;5.67;;;9.60;99.90;;;;;;4997512;28;20833;-70
2024/03/03 05:59:40;;;;;;;9.13;4.87;;;9.60;99.90;;;;;;5000109;28;20473;-70
2024/03/03 06:02:06;;;;;;;12.90;6.60;;;9.60;99.90;;;;;;4989720;28;20464;-70
2024/03/03 06:04:35;;;;;;;10.27;5.57;;;9.60;99.90;;;;;;4996071;28;20469;-70
2024/03/03 06:07:04;;;;;;;8.47;5.03;;;9.60;99.90;;;;;;4998835;28;20477;-70
2024/03/03 06:09:30;;;;;;;7.93;5.00;;;9.60;99.90;;;;;;4997131;28;20532;-70
2024/03/03 06:11:58;;;;;;;8.73;4.73;;;9.60;99.90;;;;;;4997902;28;20481;-70
2024/03/03 06:14:25;;;;;;;11.37;5.93;;;9.70;99.90;;;;;;5000315;28;20844;-70
2024/03/03 06:16:51;;;;;;;6.30;5.00;;;9.70;99.90;;;;;;4994482;28;20493;-70
2024/03/03 06:19:18;;;;;;;10.20;5.43;;;9.70;99.90;;;;;;4995457;28;20485;-70
2024/03/03 06:21:49;;;;;;;8.47;4.60;;;9.70;99.90;;;;;;4998408;28;20480;-70
2024/03/03 06:24:17;;;;;;;6.33;4.40;;;9.60;99.90;;;;;;4986371;28;20476;-70
2024/03/03 06:26:44;;;;;;;6.10;5.50;;;9.60;99.90;;;;;;4982721;28;20476;-70
2024/03/03 06:29:11;;;;;;;13.13;6.17;;;9.50;99.90;;;;;;4995479;28;20495;-70
2024/03/03 06:31:43;;;;;;;8.70;5.57;;;9.70;99.90;;;;;;4990084;28;20463;-70
2024/03/03 06:34:10;;;;;;;7.00;5.37;;;9.70;99.90;;;;;;4996207;28;20464;-70
2024/03/03 06:36:37;;;;;;;11.40;6.40;;;9.80;99.90;;;;;;4995123;28;20470;-70
2024/03/03 06:39:04;;;;;;;7.47;5.07;;;9.80;99.90;;;;;;4991362;28;20570;-70
2024/03/03 06:41:32;;;;;;;8.73;5.93;;;9.90;99.90;;;;;;4996209;28;20968;-70
2024/03/03 06:43:59;;;;;;;7.10;4.70;;;9.90;99.90;;;;;;4995256;28;20478;-70
2024/03/03 06:46:25;;;;;;;16.50;6.40;;;10.10;99.90;;;;;;5001147;28;20470;-70
2024/03/03 06:48:52;;;;;;;8.50;4.90;;;10.10;99.90;;;;;;4993845;28;20465;-70
2024/03/03 06:51:19;;;;;;;12.07;4.73;;;10.10;99.90;;;;;;4997334;28;20859;-70
2024/03/03 06:53:46;;;;;;;7.80;5.20;;;10.30;99.90;;;;;;4997316;28;20469;-70
2024/03/03 06:56:14;;;;;;;12.70;5.77;;;10.30;99.90;;;;;;4995433;28;20464;-70
2024/03/03 06:58:44;;;;;;;12.50;5.67;;;10.30;99.90;;;;;;4989016;28;20698;-70
2024/03/03 07:01:11;;;;;;;5.77;4.30;;;10.30;99.90;;;;;;4992879;28;20824;-70
2024/03/03 07:06:23;;;;;;;7.10;5.10;;;10.30;99.90;;;;;;4995013;28;20800;-70
2024/03/03 07:08:49;;;;;;;6.27;4.53;;;10.40;99.90;;;;;;4999307;28;20484;-70
2024/03/03 07:11:16;;;;;;;11.80;5.30;;;10.60;99.90;;;;;;4995876;28;20486;-70
2024/03/03 07:13:45;;;;;;;7.87;4.70;;;10.70;99.90;;;;;;4992549;28;20930;-70
2024/03/03 07:16:12;;;;;;;5.37;3.60;;;10.70;99.90;;;;;;4994739;28;20461;-70
2024/03/03 07:18:39;;;;;;;8.40;5.10;;;10.70;99.90;;;;;;4990799;28;20996;-70
2024/03/03 07:21:08;;;;;;;5.33;3.83;;;10.70;99.90;;;;;;4994296;28;20472;-70
2024/03/03 07:23:35;;;;;;;11.27;4.70;;;10.70;99.90;;;;;;4993115;28;20935;-70
2024/03/03 07:26:02;;;;;;;9.33;5.00;;;10.70;99.90;;;;;;5001375;28;20461;-70
2024/03/03 07:28:29;;;;;;;8.80;6.00;;;10.80;99.90;;;;;;4990106;28;20953;-70
2024/03/03 07:30:58;;;;;;;9.80;5.23;;;10.80;99.90;;;;;;4993636;28;20496;-70
2024/03/03 07:33:24;;;;;;;12.83;5.90;;;11.00;99.90;;;;;;4985814;28;20547;-70
2024/03/03 07:35:51;;;;;;;11.60;5.17;;;11.10;99.90;;;;;;4993968;28;20457;-70
2024/03/03 07:38:18;;;;;;;8.00;4.83;;;11.30;99.90;;;;;;4991861;28;20464;-70
2024/03/03 07:40:45;;;;;;;11.60;4.77;;;11.40;99.90;;;;;;4983705;28;20462;-70
2024/03/03 07:43:14;;;;;;;8.60;6.20;;;11.50;99.90;;;;;;4997446;28;21022;-70
2024/03/03 07:45:41;;;;;;;9.10;5.30;;;11.50;99.90;;;;;;4993541;28;20476;-70
2024/03/03 07:48:09;;;;;;;10.43;5.60;;;11.70;99.90;;;;;;4986908;28;20469;-69
2024/03/03 07:50:36;;;;;;;9.33;7.37;;;11.80;99.90;;;;;;4988698;28;20497;-69
2024/03/03 07:53:03;;;;;;;10.67;6.27;;;11.70;99.90;;;;;;4990523;28;20487;-69
2024/03/03 07:55:30;;;;;;;10.50;5.17;;;11.80;99.90;;;;;;4994346;28;20461;-71
2024/03/03 07:57:57;;;;;;;8.10;4.63;;;11.90;99.90;;;;;;4985756;28;21147;-71
2024/03/03 08:00:24;;;;;;;10.30;5.57;;;12.30;99.90;;;;;;4994831;28;20474;-71
2024/03/03 08:02:50;;;;;;;7.90;6.20;;;12.70;99.90;;;;;;4995658;28;20563;-70
2024/03/03 08:05:19;;;;;;;9.30;5.67;;;12.90;99.90;;;;;;4994267;28;20470;-70
2024/03/03 08:07:45;;;;;;;12.03;5.70;;;13.30;99.90;;;;;;4991602;28;20466;-69
2024/03/03 08:10:12;;;;;;;6.63;5.40;;;13.60;99.90;;;;;;4992986;28;20559;-69
2024/03/03 08:12:39;;;;;;;9.27;5.23;;;13.30;99.90;;;;;;4995568;28;20466;-69
2024/03/03 08:15:07;;;;;;;8.03;5.20;;;12.80;99.90;;;;;;4998063;28;20590;-69
2024/03/03 08:17:35;;;;;;;12.00;6.30;;;12.90;99.90;;;;;;4990373;28;20561;-69
2024/03/03 08:20:02;;;;;;;12.70;5.87;;;13.40;99.90;;;;;;4995347;28;20480;-69
2024/03/03 08:22:30;;;;;;;10.17;4.60;;;13.90;99.90;;;;;;4994891;28;20488;-69
2024/03/03 08:24:57;;;;;;;8.70;6.00;;;14.10;99.90;;;;;;4991660;28;20458;-69
2024/03/03 08:27:24;;;;;;;9.33;5.40;;;14.20;99.90;;;;;;4993638;28;20493;-69
2024/03/03 08:29:51;;;;;;;8.70;5.83;;;14.20;99.90;;;;;;4992898;28;20485;-69
2024/03/03 08:32:18;;;;;;;9.23;4.97;;;14.60;99.90;;;;;;4990491;28;20458;-69
2024/03/03 08:34:45;;;;;;;7.83;4.67;;;14.50;99.90;;;;;;4988834;28;20468;-69
2024/03/03 08:37:11;;;;;;;7.33;5.37;;;14.20;99.90;;;;;;4987278;28;20470;-71
2024/03/03 08:39:39;;;;;;;10.90;6.43;;;14.50;99.90;;;;;;4993355;28;20481;-69
2024/03/03 08:42:06;;;;;;;6.43;4.63;;;15.10;99.90;;;;;;4996650;28;20482;-69
2024/03/03 08:44:33;;;;;;;12.43;6.00;;;15.80;99.90;;;;;;4994758;28;20468;-69
2024/03/03 08:47:00;;;;;;;7.87;6.77;;;16.50;99.90;;;;;;5002143;28;20473;-69
2024/03/03 08:49:26;;;;;;;7.53;5.63;;;17.00;99.90;;;;;;4999490;28;20489;-68
2024/03/03 08:51:54;;;;;;;13.13;6.17;;;17.30;99.90;;;;;;4999313;28;20460;-70
2024/03/03 08:54:20;;;;;;;14.37;7.93;;;17.40;99.90;;;;;;4989314;28;20485;-70
2024/03/03 08:56:48;;;;;;;10.07;5.53;;;17.50;99.90;;;;;;5000087;28;20559;-70
2024/03/03 08:59:15;;;;;;;7.33;5.30;;;17.90;99.90;;;;;;4993118;28;20508;-70
2024/03/03 09:01:42;;;;;;;12.20;6.90;;;18.00;99.90;;;;;;4998625;28;21232;-70
2024/03/03 09:04:09;;;;;;;7.03;5.17;;;18.30;99.90;;;;;;4999864;28;20473;-70
2024/03/03 09:06:36;;;;;;;10.27;5.57;;;18.50;99.90;;;;;;5000026;28;20478;-69
2024/03/03 09:09:03;;;;;;;9.83;5.73;;;19.00;99.90;;;;;;5000870;28;20480;-69
2024/03/03 09:11:32;;;;;;;9.60;5.50;;;18.70;99.90;;;;;;4997339;28;21028;-69
2024/03/03 09:14:00;;;;;;;9.00;5.23;;;18.50;99.90;;;;;;4998340;28;21064;-69
2024/03/03 09:16:27;;;;;;;9.53;4.80;;;18.40;99.90;;;;;;4998038;28;20488;-69
2024/03/03 09:18:54;;;;;;;7.10;5.77;;;18.60;99.90;;;;;;4993890;28;20509;-69
2024/03/03 09:21:21;;;;;;;7.67;5.80;;;19.10;99.90;;;;;;4998776;28;20486;-69
2024/03/03 09:23:49;;;;;;;9.70;6.80;;;20.20;99.90;;;;;;4986015;28;21105;-70
2024/03/03 09:26:15;;;;;;;7.83;5.10;;;20.80;99.90;;;;;;4991433;28;20476;-69
2024/03/03 09:28:42;;;;;;;11.67;6.97;;;20.80;99.90;;;;;;4993216;28;20891;-69
2024/03/03 09:31:10;;;;;;;8.90;6.27;;;20.80;99.90;;;;;;4996278;28;20458;-69
2024/03/03 09:33:38;;;;;;;8.67;6.43;;;20.60;99.90;;;;;;4989006;28;20509;-69
2024/03/03 09:36:07;;;;;;;10.40;6.53;;;20.60;99.90;;;;;;4981881;28;20471;-69
2024/03/03 09:38:33;;;;;;;8.50;6.53;;;19.80;99.90;;;;;;4994905;28;20473;-69
2024/03/03 09:41:00;;;;;;;6.63;5.90;;;19.40;99.90;;;;;;4989179;28;20520;-70
2024/03/03 09:43:29;;;;;;;11.47;7.17;;;18.60;99.90;;;;;;4985161;28;20854;-69
2024/03/03 09:45:56;;;;;;;12.43;6.63;;;17.80;99.90;;;;;;4991922;28;20965;-69
2024/03/03 09:48:24;;;;;;;11.80;7.07;;;17.40;99.90;;;;;;4996948;28;20472;-70
2024/03/03 09:50:52;;;;;;;14.53;6.30;;;17.40;99.90;;;;;;4991076;28;20468;-69
2024/03/03 09:53:19;;;;;;;12.67;7.97;;;17.20;99.90;;;;;;4993711;28;20842;-69
2024/03/03 09:55:46;;;;;;;10.30;7.40;;;17.80;99.90;;;;;;4990726;28;20599;-73
2024/03/03 09:58:13;;;;;;;12.43;6.17;;;17.80;99.90;;;;;;4991196;28;20621;-69
2024/03/03 10:00:41;;;;;;;9.33;6.13;;;18.30;99.90;;;;;;4991678;28;20461;-69
2024/03/03 10:03:08;;;;;;;8.50;5.20;;;19.10;99.90;;;;;;4991662;28;20908;-69
2024/03/03 10:05:39;;;;;;;10.73;5.20;;;20.20;99.90;;;;;;4990019;28;20461;-69
2024/03/03 10:08:06;;;;;;;12.87;5.97;;;20.10;99.90;;;;;;4993318;28;20488;-70
2024/03/03 10:10:35;;;;;;;8.37;5.10;;;20.60;99.90;;;;;;4987331;28;20481;-70
2024/03/03 10:13:04;;;;;;;9.00;6.40;;;21.40;99.90;;;;;;4998442;28;20816;-70
2024/03/03 10:15:31;;;;;;;11.50;5.97;;;21.70;99.90;;;;;;4990108;28;20472;-70
2024/03/03 10:18:00;;;;;;;7.83;4.60;;;21.00;99.90;;;;;;4992776;28;20476;-70
2024/03/03 10:20:28;;;;;;;9.80;4.80;;;21.00;99.90;;;;;;4985362;28;20485;-70
2024/03/03 10:22:57;;;;;;;13.23;6.03;;;20.10;99.90;;;;;;4985820;28;20541;-70
2024/03/03 10:25:25;;;;;;;9.83;6.83;;;20.40;99.90;;;;;;4993054;28;20822;-70
2024/03/03 10:27:52;;;;;;;7.70;6.00;;;21.10;99.90;;;;;;4990690;28;20473;-70
2024/03/03 10:30:22;;;;;;;9.20;7.47;;;21.80;99.90;;;;;;4992747;28;20500;-69
2024/03/03 10:32:49;;;;;;;18.57;7.30;;;22.10;99.90;;;;;;4992306;28;20479;-69
2024/03/03 10:35:18;;;;;;;8.47;5.50;;;21.80;99.90;;;;;;4983390;28;20477;-69
2024/03/03 10:37:58;;;;;;;10.47;6.40;;;22.20;99.90;;;;;;4983854;28;20603;-70
2024/03/03 10:40:26;;;;;;;10.33;5.67;;;22.80;99.50;;;;;;4988480;28;21028;-70
2024/03/03 10:42:53;;;;;;;12.53;7.73;;;22.60;99.10;;;;;;4990422;28;20489;-69
2024/03/03 10:45:20;;;;;;;11.47;5.80;;;22.50;98.90;;;;;;4987486;28;20472;-69
2024/03/03 10:47:48;;;;;;;9.30;5.63;;;22.60;98.30;;;;;;4985212;28;20457;-70
2024/03/03 10:50:16;;;;;;;10.80;6.13;;;22.90;98.40;;;;;;4992913;28;20571;-69
2024/03/03 10:52:43;;;;;;;6.17;5.57;;;22.70;97.90;;;;;;4988937;28;20457;-69
2024/03/03 10:55:11;;;;;;;12.57;5.97;;;22.50;98.10;;;;;;4987375;28;20509;-69
2024/03/03 10:57:40;;;;;;;7.67;6.07;;;22.00;97.80;;;;;;4993149;28;20469;-69
2024/03/03 11:00:11;;;;;;;11.30;7.60;;;21.60;98.80;;;;;;4989891;28;20487;-69
2024/03/03 11:02:39;;;;;;;8.37;6.83;;;21.70;99.00;;;;;;4986649;28;20485;-69
2024/03/03 11:05:06;;;;;;;8.53;6.20;;;22.40;98.60;;;;;;4998483;28;20465;-69
2024/03/03 11:07:36;;;;;;;8.20;5.40;;;23.10;97.80;;;;;;4996537;28;20935;-69
2024/03/03 11:10:05;;;;;;;9.77;6.67;;;23.70;96.60;;;;;;4998196;28;20476;-69
2024/03/03 11:12:35;;;;;;;8.27;6.10;;;24.20;96.90;;;;;;4994293;28;20469;-69
2024/03/03 11:15:05;;;;;;;8.17;5.70;;;24.20;95.40;;;;;;4986484;28;21104;-70
2024/03/03 11:17:34;;;;;;;23.17;15.27;;;24.60;95.80;;;;;;4988031;28;22128;-70
2024/03/03 11:20:04;;;;;;;9.47;6.67;;;24.50;95.30;;;;;;4996329;28;20494;-70
2024/03/03 11:22:35;;;;;;;11.30;5.83;;;23.60;95.10;;;;;;4991090;28;20492;-70
2024/03/03 11:25:04;;;;;;;6.23;4.90;;;23.00;95.90;;;;;;4994215;28;20571;-70
2024/03/03 11:27:31;;;;;;;7.07;5.63;;;22.80;95.90;;;;;;4991292;28;20548;-70
2024/03/03 11:29:58;;;;;;;9.40;6.27;;;23.40;96.80;;;;;;4997156;28;20482;-70
2024/03/03 11:32:28;;;;;;;12.73;5.77;;;24.30;95.20;;;;;;4996412;28;20457;-70
2024/03/03 11:34:56;;;;;;;10.43;6.13;;;25.70;93.30;;;;;;4986152;28;20548;-70
2024/03/03 11:37:24;;;;;;;9.67;5.87;;;26.70;93.80;;;;;;4993726;28;20579;-70
2024/03/03 11:39:54;;;;;;;8.80;6.00;;;26.50;92.90;;;;;;4984323;28;20492;-70
2024/03/03 11:42:22;;;;;;;7.03;4.93;;;26.20;90.50;;;;;;4990477;28;20504;-69
2024/03/03 11:44:50;;;;;;;6.63;5.53;;;25.50;91.00;;;;;;4996801;28;20564;-69
2024/03/03 11:49:47;;;;;;;9.10;5.60;;;25.50;91.10;;;;;;4984191;28;20588;-70
2024/03/03 11:52:39;;;;;;;7.70;5.53;;;25.50;90.30;;;;;;4999396;28;20481;-72
2024/03/03 11:55:08;;;;;;;8.47;5.27;;;25.30;90.10;;;;;;4996834;28;20465;-71
2024/03/03 11:57:35;;;;;;;8.80;5.50;;;25.50;88.90;;;;;;5004264;28;20457;-72
2024/03/03 12:00:10;;;;;;;8.17;5.57;;;25.50;87.80;;;;;;4999885;28;20485;-71
2024/03/03 12:02:41;;;;;;;5.83;4.30;;;25.90;87.60;;;;;;4997040;28;20485;-72
2024/03/03 12:05:10;;;;;;;4.50;3.93;;;25.80;87.40;;;;;;4999051;28;21663;-71
2024/03/03 12:07:42;;;;;;;7.80;5.20;;;26.40;85.30;;;;;;5000527;28;20488;-72
2024/03/03 12:10:16;;;;;;;9.30;5.63;;;26.10;87.20;;;;;;4991778;28;20999;-70
2024/03/03 12:12:47;;;;;;;6.57;4.80;;;25.90;83.40;;;;;;5001342;28;20564;-71
2024/03/03 12:15:16;;;;;;;6.07;4.50;;;25.70;83.60;;;;;;5000351;28;20457;-71
2024/03/03 12:17:43;;;;;;;7.17;5.13;;;25.90;84.70;;;;;;4992247;28;20473;-71
2024/03/03 12:20:13;;;;;;;6.40;4.50;;;25.90;84.60;;;;;;4999687;28;20489;-71
2024/03/03 12:22:40;;;;;;;5.13;4.33;;;26.80;84.80;;;;;;5003369;28;20500;-71
2024/03/03 12:25:08;;;;;;;5.10;4.27;;;27.20;82.50;;;;;;5003287;28;20462;-70
2024/03/03 12:27:34;;;;;;;6.23;4.80;;;27.60;81.90;;;;;;5006579;28;20545;-71
2024/03/03 12:30:09;;;;;;;6.50;4.60;;;27.30;79.00;;;;;;5003496;28;20481;-72
2024/03/03 12:32:35;;;;;;;6.73;4.20;;;27.00;77.40;;;;;;5002833;28;20491;-72
2024/03/03 12:35:02;;;;;;;6.87;4.70;;;26.20;78.00;;;;;;4986712;28;20472;-71
2024/03/03 12:37:31;;;;;;;5.13;3.70;;;26.10;79.10;;;;;;5004046;28;20492;-71
2024/03/03 12:39:58;;;;;;;7.67;5.60;;;26.30;78.90;;;;;;5004078;28;20489;-72
2024/03/03 12:42:25;;;;;;;9.77;5.73;;;25.70;80.90;;;;;;4999981;28;20848;-70
2024/03/03 12:44:52;;;;;;;5.73;4.63;;;26.40;81.90;;;;;;5001206;28;20463;-71
2024/03/03 12:47:19;;;;;;;7.50;5.20;;;27.20;80.40;;;;;;4998505;28;20465;-71
2024/03/03 12:49:46;;;;;;;10.43;5.57;;;26.80;81.10;;;;;;4997707;28;20485;-71
2024/03/03 12:52:13;;;;;;;8.97;6.07;;;27.40;83.20;;;;;;5002519;28;20461;-71